sensor_id;sensor_type;location;lat;lon;timestamp;pressure;altitude;pressure_sealevel;temperature;humidity
78892;BME280;68368;51.728;5.248;2023-05-07T00:00:38;101603.85;;;13.70;85.04
78892;BME280;68368;51.728;5.248;2023-05-07T00:02:41;101606.67;;;13.73;84.68
78892;BME280;68368;51.728;5.248;2023-05-07T00:04:44;101603.79;;;13.75;84.64
78892;BME280;68368;51.728;5.248;2023-05-07T00:06:48;101602.53;;;13.76;84.81
78892;BME280;68368;51.728;5.248;2023-05-07T00:08:51;101605.72;;;13.79;84.64
78892;BME280;68368;51.728;5.248;2023-05-07T00:10:55;101605.88;;;13.80;84.46
78892;BME280;68368;51.728;5.248;2023-05-07T00:12:58;101609.27;;;13.81;84.41
78892;BME280;68368;51.728;5.248;2023-05-07T00:15:03;101607.44;;;13.84;84.13
78892;BME280;68368;51.728;5.248;2023-05-07T00:17:07;101603.87;;;13.84;84.13
78892;BME280;68368;51.728;5.248;2023-05-07T00:19:10;101602.60;;;13.86;83.90
78892;BME280;68368;51.728;5.248;2023-05-07T00:21:14;101599.73;;;13.87;83.89
78892;BME280;68368;51.728;5.248;2023-05-07T00:23:17;101599.02;;;13.86;83.96
78892;BME280;68368;51.728;5.248;2023-05-07T00:25:21;101593.86;;;13.86;83.84
78892;BME280;68368;51.728;5.248;2023-05-07T00:27:27;101595.67;;;13.84;83.78
78892;BME280;68368;51.728;5.248;2023-05-07T00:29:30;101595.13;;;13.83;83.78
78892;BME280;68368;51.728;5.248;2023-05-07T00:31:34;101592.11;;;13.83;83.67
78892;BME280;68368;51.728;5.248;2023-05-07T00:33:37;101585.88;;;13.82;83.78
78892;BME280;68368;51.728;5.248;2023-05-07T00:35:43;101583.20;;;13.82;83.45
78892;BME280;68368;51.728;5.248;2023-05-07T00:37:47;101583.02;;;13.81;83.62
78892;BME280;68368;51.728;5.248;2023-05-07T00:39:51;101583.40;;;13.79;83.40
78892;BME280;68368;51.728;5.248;2023-05-07T00:41:54;101584.48;;;13.77;83.75
78892;BME280;68368;51.728;5.248;2023-05-07T00:43:58;101585.95;;;13.76;83.49
78892;BME280;68368;51.728;5.248;2023-05-07T00:46:02;101583.82;;;13.74;83.47
78892;BME280;68368;51.728;5.248;2023-05-07T00:48:08;101577.77;;;13.73;83.30
78892;BME280;68368;51.728;5.248;2023-05-07T00:50:12;101576.87;;;13.73;83.39
78892;BME280;68368;51.728;5.248;2023-05-07T00:52:17;101575.80;;;13.72;83.54
78892;BME280;68368;51.728;5.248;2023-05-07T00:54:22;101577.95;;;13.72;83.46
78892;BME280;68368;51.728;5.248;2023-05-07T00:56:25;101577.27;;;13.70;83.54
78892;BME280;68368;51.728;5.248;2023-05-07T00:58:29;101582.44;;;13.70;83.49
78892;BME280;68368;51.728;5.248;2023-05-07T01:00:37;101580.48;;;13.70;83.54
78892;BME280;68368;51.728;5.248;2023-05-07T01:02:41;101577.97;;;13.70;83.36
78892;BME280;68368;51.728;5.248;2023-05-07T01:04:45;101578.16;;;13.70;83.47
78892;BME280;68368;51.728;5.248;2023-05-07T01:06:50;101581.89;;;13.71;83.33
78892;BME280;68368;51.728;5.248;2023-05-07T01:08:55;101576.73;;;13.70;83.39
78892;BME280;68368;51.728;5.248;2023-05-07T01:11:02;101572.27;;;13.71;83.53
78892;BME280;68368;51.728;5.248;2023-05-07T01:13:06;101570.84;;;13.71;83.33
78892;BME280;68368;51.728;5.248;2023-05-07T01:15:13;101569.77;;;13.70;83.56
78892;BME280;68368;51.728;5.248;2023-05-07T01:17:17;101571.36;;;13.70;83.26
78892;BME280;68368;51.728;5.248;2023-05-07T01:19:21;101569.41;;;13.70;83.13
78892;BME280;68368;51.728;5.248;2023-05-07T01:21:26;101564.59;;;13.70;83.17
78892;BME280;68368;51.728;5.248;2023-05-07T01:23:31;101565.14;;;13.70;82.98
78892;BME280;68368;51.728;5.248;2023-05-07T01:25:37;101567.09;;;13.71;83.26
78892;BME280;68368;51.728;5.248;2023-05-07T01:27:43;101567.98;;;13.71;83.31
78892;BME280;68368;51.728;5.248;2023-05-07T01:29:46;101569.20;;;13.72;83.30
78892;BME280;68368;51.728;5.248;2023-05-07T01:31:51;101568.31;;;13.72;83.42
78892;BME280;68368;51.728;5.248;2023-05-07T01:33:58;101565.12;;;13.71;83.42
78892;BME280;68368;51.728;5.248;2023-05-07T01:36:03;101562.95;;;13.73;83.15
78892;BME280;68368;51.728;5.248;2023-05-07T01:38:11;101565.99;;;13.73;83.50
78892;BME280;68368;51.728;5.248;2023-05-07T01:40:16;101564.55;;;13.74;83.30
78892;BME280;68368;51.728;5.248;2023-05-07T01:42:23;101568.98;;;13.76;83.08
78892;BME280;68368;51.728;5.248;2023-05-07T01:44:27;101568.07;;;13.78;83.17
78892;BME280;68368;51.728;5.248;2023-05-07T01:46:32;101564.50;;;13.78;83.08
78892;BME280;68368;51.728;5.248;2023-05-07T01:48:36;101566.11;;;13.79;83.21
78892;BME280;68368;51.728;5.248;2023-05-07T01:50:40;101563.05;;;13.79;83.11
78892;BME280;68368;51.728;5.248;2023-05-07T01:52:52;101562.67;;;13.81;83.29
78892;BME280;68368;51.728;5.248;2023-05-07T01:54:56;101562.13;;;13.83;83.05
78892;BME280;68368;51.728;5.248;2023-05-07T01:57:00;101555.67;;;13.85;82.97
78892;BME280;68368;51.728;5.248;2023-05-07T01:59:06;101551.37;;;13.86;82.76
78892;BME280;68368;51.728;5.248;2023-05-07T02:01:14;101545.85;;;13.86;82.88
78892;BME280;68368;51.728;5.248;2023-05-07T02:03:17;101546.59;;;13.84;82.99
78892;BME280;68368;51.728;5.248;2023-05-07T02:05:23;101544.63;;;13.83;82.83
78892;BME280;68368;51.728;5.248;2023-05-07T02:07:27;101543.92;;;13.83;82.94
78892;BME280;68368;51.728;5.248;2023-05-07T02:09:31;101546.61;;;13.82;83.10
78892;BME280;68368;51.728;5.248;2023-05-07T02:11:35;101549.82;;;13.81;83.01
78892;BME280;68368;51.728;5.248;2023-05-07T02:13:38;101553.42;;;13.80;83.07
78892;BME280;68368;51.728;5.248;2023-05-07T02:15:42;101552.71;;;13.79;83.07
78892;BME280;68368;51.728;5.248;2023-05-07T02:20:23;101548.46;;;13.77;83.23
78892;BME280;68368;51.728;5.248;2023-05-07T02:22:26;101546.86;;;13.76;83.31
78892;BME280;68368;51.728;5.248;2023-05-07T02:24:30;101547.95;;;13.75;83.20
78892;BME280;68368;51.728;5.248;2023-05-07T02:26:33;101552.76;;;13.75;83.38
78892;BME280;68368;51.728;5.248;2023-05-07T02:28:36;101550.09;;;13.73;83.46
78892;BME280;68368;51.728;5.248;2023-05-07T02:30:40;101551.72;;;13.72;83.38
78892;BME280;68368;51.728;5.248;2023-05-07T02:32:44;101550.30;;;13.71;83.19
78892;BME280;68368;51.728;5.248;2023-05-07T02:34:49;101551.75;;;13.71;83.20
78892;BME280;68368;51.728;5.248;2023-05-07T02:36:55;101550.67;;;13.71;83.27
78892;BME280;68368;51.728;5.248;2023-05-07T02:38:58;101553.52;;;13.72;83.20
78892;BME280;68368;51.728;5.248;2023-05-07T02:41:02;101557.79;;;13.72;83.00
78892;BME280;68368;51.728;5.248;2023-05-07T02:43:05;101564.02;;;13.72;83.29
78892;BME280;68368;51.728;5.248;2023-05-07T02:45:11;101565.98;;;13.73;83.30
78892;BME280;68368;51.728;5.248;2023-05-07T02:47:17;101562.60;;;13.73;83.45
78892;BME280;68368;51.728;5.248;2023-05-07T02:49:22;101558.31;;;13.73;83.35
78892;BME280;68368;51.728;5.248;2023-05-07T02:51:33;101554.20;;;13.74;83.69
78892;BME280;68368;51.728;5.248;2023-05-07T02:53:38;101551.86;;;13.75;83.34
78892;BME280;68368;51.728;5.248;2023-05-07T02:55:42;101547.58;;;13.75;83.50
78892;BME280;68368;51.728;5.248;2023-05-07T02:57:45;101547.23;;;13.74;83.52
78892;BME280;68368;51.728;5.248;2023-05-07T02:59:51;101543.50;;;13.73;83.58
78892;BME280;68368;51.728;5.248;2023-05-07T03:01:57;101543.51;;;13.72;83.75
78892;BME280;68368;51.728;5.248;2023-05-07T03:04:00;101551.73;;;13.71;83.73
78892;BME280;68368;51.728;5.248;2023-05-07T03:06:05;101549.25;;;13.70;83.65
78892;BME280;68368;51.728;5.248;2023-05-07T03:08:10;101551.04;;;13.69;83.59
78892;BME280;68368;51.728;5.248;2023-05-07T03:10:14;101551.40;;;13.69;83.44
78892;BME280;68368;51.728;5.248;2023-05-07T03:12:17;101549.45;;;13.68;83.72
78892;BME280;68368;51.728;5.248;2023-05-07T03:14:20;101548.05;;;13.67;83.63
78892;BME280;68368;51.728;5.248;2023-05-07T03:16:24;101548.77;;;13.66;83.57
78892;BME280;68368;51.728;5.248;2023-05-07T03:18:27;101548.08;;;13.65;83.76
78892;BME280;68368;51.728;5.248;2023-05-07T03:20:31;101548.23;;;13.65;83.73
78892;BME280;68368;51.728;5.248;2023-05-07T03:22:35;101541.80;;;13.64;83.81
78892;BME280;68368;51.728;5.248;2023-05-07T03:24:39;101547.02;;;13.63;83.92
78892;BME280;68368;51.728;5.248;2023-05-07T03:26:44;101547.55;;;13.63;83.91
78892;BME280;68368;51.728;5.248;2023-05-07T03:28:47;101548.63;;;13.62;83.73
78892;BME280;68368;51.728;5.248;2023-05-07T03:30:50;101549.38;;;13.59;83.79
78892;BME280;68368;51.728;5.248;2023-05-07T03:32:54;101547.77;;;13.58;83.96
78892;BME280;68368;51.728;5.248;2023-05-07T03:34:57;101543.33;;;13.57;83.86
78892;BME280;68368;51.728;5.248;2023-05-07T03:37:02;101545.13;;;13.56;83.82
78892;BME280;68368;51.728;5.248;2023-05-07T03:39:05;101549.97;;;13.54;83.93
78892;BME280;68368;51.728;5.248;2023-05-07T03:41:09;101546.59;;;13.52;84.10
78892;BME280;68368;51.728;5.248;2023-05-07T03:43:12;101547.86;;;13.50;84.10
78892;BME280;68368;51.728;5.248;2023-05-07T03:45:15;101548.42;;;13.48;84.16
78892;BME280;68368;51.728;5.248;2023-05-07T03:47:19;101547.55;;;13.46;84.22
78892;BME280;68368;51.728;5.248;2023-05-07T03:49:22;101546.69;;;13.44;84.39
78892;BME280;68368;51.728;5.248;2023-05-07T03:51:27;101548.28;;;13.44;84.37
78892;BME280;68368;51.728;5.248;2023-05-07T03:53:31;101546.16;;;13.43;84.48
78892;BME280;68368;51.728;5.248;2023-05-07T03:55:35;101546.50;;;13.43;84.52
78892;BME280;68368;51.728;5.248;2023-05-07T03:57:38;101550.80;;;13.43;84.49
78892;BME280;68368;51.728;5.248;2023-05-07T03:59:41;101554.35;;;13.43;84.35
78892;BME280;68368;51.728;5.248;2023-05-07T04:01:47;101551.67;;;13.43;84.47
78892;BME280;68368;51.728;5.248;2023-05-07T04:03:50;101557.03;;;13.45;84.52
78892;BME280;68368;51.728;5.248;2023-05-07T04:05:53;101555.96;;;13.44;84.37
78892;BME280;68368;51.728;5.248;2023-05-07T04:08:00;101558.61;;;13.46;84.46
78892;BME280;68368;51.728;5.248;2023-05-07T04:10:04;101558.96;;;13.47;84.47
78892;BME280;68368;51.728;5.248;2023-05-07T04:12:08;101566.06;;;13.49;84.51
78892;BME280;68368;51.728;5.248;2023-05-07T04:14:11;101564.98;;;13.51;84.62
78892;BME280;68368;51.728;5.248;2023-05-07T04:16:16;101564.61;;;13.52;84.36
78892;BME280;68368;51.728;5.248;2023-05-07T04:18:20;101562.98;;;13.54;84.45
78892;BME280;68368;51.728;5.248;2023-05-07T04:20:24;101561.00;;;13.55;84.31
78892;BME280;68368;51.728;5.248;2023-05-07T04:22:28;101561.88;;;13.57;84.18
78892;BME280;68368;51.728;5.248;2023-05-07T04:24:36;101561.32;;;13.59;84.11
78892;BME280;68368;51.728;5.248;2023-05-07T04:26:39;101560.41;;;13.61;84.21
78892;BME280;68368;51.728;5.248;2023-05-07T04:28:43;101561.27;;;13.63;84.27
78892;BME280;68368;51.728;5.248;2023-05-07T04:30:46;101557.52;;;13.65;84.34
78892;BME280;68368;51.728;5.248;2023-05-07T04:32:49;101560.36;;;13.66;83.94
78892;BME280;68368;51.728;5.248;2023-05-07T04:34:53;101559.11;;;13.67;84.25
78892;BME280;68368;51.728;5.248;2023-05-07T04:36:59;101561.39;;;13.69;83.98
78892;BME280;68368;51.728;5.248;2023-05-07T04:39:04;101563.86;;;13.71;83.88
78892;BME280;68368;51.728;5.248;2023-05-07T04:41:08;101567.77;;;13.74;84.04
78892;BME280;68368;51.728;5.248;2023-05-07T04:43:13;101570.59;;;13.75;84.01
78892;BME280;68368;51.728;5.248;2023-05-07T04:45:16;101573.97;;;13.77;83.86
78892;BME280;68368;51.728;5.248;2023-05-07T04:47:19;101576.09;;;13.79;83.75
78892;BME280;68368;51.728;5.248;2023-05-07T04:49:23;101578.36;;;13.83;83.92
78892;BME280;68368;51.728;5.248;2023-05-07T04:51:26;101581.53;;;13.87;84.01
78892;BME280;68368;51.728;5.248;2023-05-07T04:53:30;101583.27;;;13.90;84.09
78892;BME280;68368;51.728;5.248;2023-05-07T04:55:34;101590.04;;;13.92;83.89
78892;BME280;68368;51.728;5.248;2023-05-07T04:57:38;101590.05;;;13.91;83.97
78892;BME280;68368;51.728;5.248;2023-05-07T04:59:44;101590.04;;;13.92;83.91
78892;BME280;68368;51.728;5.248;2023-05-07T05:01:47;101593.44;;;13.92;83.90
78892;BME280;68368;51.728;5.248;2023-05-07T05:03:51;101595.92;;;13.91;83.83
78892;BME280;68368;51.728;5.248;2023-05-07T05:05:57;101595.74;;;13.92;83.83
78892;BME280;68368;51.728;5.248;2023-05-07T05:08:01;101598.98;;;13.91;83.95
78892;BME280;68368;51.728;5.248;2023-05-07T05:10:06;101596.48;;;13.91;83.92
78892;BME280;68368;51.728;5.248;2023-05-07T05:12:10;101595.20;;;13.94;83.92
78892;BME280;68368;51.728;5.248;2023-05-07T05:14:16;101593.93;;;13.95;84.12
78892;BME280;68368;51.728;5.248;2023-05-07T05:16:20;101592.66;;;13.96;84.08
78892;BME280;68368;51.728;5.248;2023-05-07T05:18:23;101591.94;;;13.98;84.08
78892;BME280;68368;51.728;5.248;2023-05-07T05:20:26;101594.05;;;13.99;83.97
78892;BME280;68368;51.728;5.248;2023-05-07T05:22:30;101595.09;;;14.02;84.25
78892;BME280;68368;51.728;5.248;2023-05-07T05:24:37;101592.73;;;14.04;84.13
78892;BME280;68368;51.728;5.248;2023-05-07T05:26:40;101594.14;;;14.07;83.95
78892;BME280;68368;51.728;5.248;2023-05-07T05:28:44;101594.81;;;14.10;84.14
78892;BME280;68368;51.728;5.248;2023-05-07T05:30:47;101598.19;;;14.12;84.16
78892;BME280;68368;51.728;5.248;2023-05-07T05:32:50;101597.81;;;14.13;83.73
78892;BME280;68368;51.728;5.248;2023-05-07T05:34:54;101600.84;;;14.15;83.86
78892;BME280;68368;51.728;5.248;2023-05-07T05:36:57;101601.38;;;14.14;83.98
78892;BME280;68368;51.728;5.248;2023-05-07T05:39:05;101607.63;;;14.14;84.09
78892;BME280;68368;51.728;5.248;2023-05-07T05:41:08;101607.82;;;14.12;84.13
78892;BME280;68368;51.728;5.248;2023-05-07T05:43:13;101609.27;;;14.11;84.03
78892;BME280;68368;51.728;5.248;2023-05-07T05:45:17;101613.20;;;14.10;84.37
78892;BME280;68368;51.728;5.248;2023-05-07T05:47:20;101612.48;;;14.11;84.54
78892;BME280;68368;51.728;5.248;2023-05-07T05:49:24;101613.00;;;14.14;84.27
78892;BME280;68368;51.728;5.248;2023-05-07T05:51:28;101612.25;;;14.15;84.61
78892;BME280;68368;51.728;5.248;2023-05-07T05:53:34;101616.15;;;14.18;84.37
78892;BME280;68368;51.728;5.248;2023-05-07T05:55:38;101618.79;;;14.21;84.24
78892;BME280;68368;51.728;5.248;2023-05-07T05:57:42;101618.55;;;14.25;84.42
78892;BME280;68368;51.728;5.248;2023-05-07T05:59:47;101617.61;;;14.30;84.09
78892;BME280;68368;51.728;5.248;2023-05-07T06:01:51;101616.10;;;14.35;84.20
78892;BME280;68368;51.728;5.248;2023-05-07T06:03:54;101614.94;;;14.41;84.24
78892;BME280;68368;51.728;5.248;2023-05-07T06:05:58;101612.55;;;14.46;84.34
78892;BME280;68368;51.728;5.248;2023-05-07T06:08:01;101613.73;;;14.53;84.35
78892;BME280;68368;51.728;5.248;2023-05-07T06:10:09;101614.56;;;14.58;83.92
78892;BME280;68368;51.728;5.248;2023-05-07T06:12:13;101617.19;;;14.62;84.02
78892;BME280;68368;51.728;5.248;2023-05-07T06:14:16;101614.47;;;14.65;84.04
78892;BME280;68368;51.728;5.248;2023-05-07T06:16:20;101616.40;;;14.67;83.90
78892;BME280;68368;51.728;5.248;2023-05-07T06:18:23;101618.16;;;14.69;83.82
78892;BME280;68368;51.728;5.248;2023-05-07T06:20:28;101625.85;;;14.69;83.72
78892;BME280;68368;51.728;5.248;2023-05-07T06:22:33;101619.39;;;14.71;83.82
78892;BME280;68368;51.728;5.248;2023-05-07T06:24:39;101618.61;;;14.75;83.91
78892;BME280;68368;51.728;5.248;2023-05-07T06:26:42;101616.79;;;14.78;83.55
78892;BME280;68368;51.728;5.248;2023-05-07T06:28:45;101615.45;;;14.82;83.56
78892;BME280;68368;51.728;5.248;2023-05-07T06:30:49;101614.66;;;14.88;83.74
78892;BME280;68368;51.728;5.248;2023-05-07T06:32:52;101616.16;;;14.95;83.48
78892;BME280;68368;51.728;5.248;2023-05-07T06:34:56;101613.34;;;15.04;83.30
78892;BME280;68368;51.728;5.248;2023-05-07T06:36:59;101615.36;;;15.11;83.20
78892;BME280;68368;51.728;5.248;2023-05-07T06:39:04;101620.90;;;15.22;82.91
78892;BME280;68368;51.728;5.248;2023-05-07T06:41:08;101626.06;;;15.34;82.42
78892;BME280;68368;51.728;5.248;2023-05-07T06:43:12;101629.98;;;15.45;82.31
78892;BME280;68368;51.728;5.248;2023-05-07T06:45:16;101631.54;;;15.59;81.82
78892;BME280;68368;51.728;5.248;2023-05-07T06:47:19;101635.84;;;15.70;81.30
78892;BME280;68368;51.728;5.248;2023-05-07T06:49:24;101638.67;;;15.81;80.60
78892;BME280;68368;51.728;5.248;2023-05-07T06:51:27;101639.66;;;15.95;80.59
78892;BME280;68368;51.728;5.248;2023-05-07T06:53:33;101638.11;;;16.10;80.48
78892;BME280;68368;51.728;5.248;2023-05-07T06:55:36;101637.08;;;16.26;80.18
78892;BME280;68368;51.728;5.248;2023-05-07T06:57:41;101633.42;;;16.38;79.57
78892;BME280;68368;51.728;5.248;2023-05-07T06:59:44;101637.91;;;16.45;79.21
78892;BME280;68368;51.728;5.248;2023-05-07T07:01:48;101639.36;;;16.52;79.22
78892;BME280;68368;51.728;5.248;2023-05-07T07:03:51;101643.55;;;16.58;78.87
78892;BME280;68368;51.728;5.248;2023-05-07T07:05:55;101640.31;;;16.58;78.36
78892;BME280;68368;51.728;5.248;2023-05-07T07:08:01;101646.46;;;16.56;78.54
78892;BME280;68368;51.728;5.248;2023-05-07T07:10:06;101646.82;;;16.56;78.74
78892;BME280;68368;51.728;5.248;2023-05-07T07:12:09;101648.58;;;16.58;78.92
78892;BME280;68368;51.728;5.248;2023-05-07T07:14:14;101651.70;;;16.62;79.05
78892;BME280;68368;51.728;5.248;2023-05-07T07:16:18;101644.44;;;16.66;78.55
78892;BME280;68368;51.728;5.248;2023-05-07T07:18:29;101644.14;;;16.72;78.54
78892;BME280;68368;51.728;5.248;2023-05-07T07:20:32;101646.60;;;16.83;78.14
78892;BME280;68368;51.728;5.248;2023-05-07T07:22:37;101643.65;;;16.94;77.91
78892;BME280;68368;51.728;5.248;2023-05-07T07:24:40;101642.75;;;17.09;77.54
78892;BME280;68368;51.728;5.248;2023-05-07T07:26:45;101643.09;;;17.24;77.32
78892;BME280;68368;51.728;5.248;2023-05-07T07:28:48;101643.91;;;17.35;76.95
78892;BME280;68368;51.728;5.248;2023-05-07T07:30:53;101649.11;;;17.42;76.33
78892;BME280;68368;51.728;5.248;2023-05-07T07:32:57;101648.77;;;17.42;76.07
78892;BME280;68368;51.728;5.248;2023-05-07T07:35:06;101646.14;;;17.39;76.09
78892;BME280;68368;51.728;5.248;2023-05-07T07:37:10;101651.73;;;17.37;75.99
78892;BME280;68368;51.728;5.248;2023-05-07T07:39:16;101653.32;;;17.39;76.26
78892;BME280;68368;51.728;5.248;2023-05-07T07:41:19;101654.83;;;17.43;76.22
78892;BME280;68368;51.728;5.248;2023-05-07T07:43:22;101655.23;;;17.48;76.37
78892;BME280;68368;51.728;5.248;2023-05-07T07:45:25;101659.46;;;17.51;76.32
78892;BME280;68368;51.728;5.248;2023-05-07T07:47:28;101663.15;;;17.55;76.18
78892;BME280;68368;51.728;5.248;2023-05-07T07:49:32;101662.64;;;17.53;75.75
78892;BME280;68368;51.728;5.248;2023-05-07T07:51:37;101663.23;;;17.51;75.78
78892;BME280;68368;51.728;5.248;2023-05-07T07:53:41;101660.73;;;17.51;75.64
78892;BME280;68368;51.728;5.248;2023-05-07T07:55:45;101659.77;;;17.54;75.79
78892;BME280;68368;51.728;5.248;2023-05-07T07:57:48;101663.34;;;17.61;75.51
78892;BME280;68368;51.728;5.248;2023-05-07T07:59:55;101665.41;;;17.71;75.56
78892;BME280;68368;51.728;5.248;2023-05-07T08:01:59;101666.02;;;17.76;74.73
78892;BME280;68368;51.728;5.248;2023-05-07T08:04:03;101667.27;;;17.83;74.80
78892;BME280;68368;51.728;5.248;2023-05-07T08:06:08;101664.35;;;17.92;74.80
78892;BME280;68368;51.728;5.248;2023-05-07T08:08:11;101665.14;;;18.02;74.42
78892;BME280;68368;51.728;5.248;2023-05-07T08:10:15;101665.90;;;18.14;73.87
78892;BME280;68368;51.728;5.248;2023-05-07T08:12:21;101666.48;;;18.24;73.94
78892;BME280;68368;51.728;5.248;2023-05-07T08:14:25;101665.48;;;18.34;73.46
78892;BME280;68368;51.728;5.248;2023-05-07T08:16:28;101666.25;;;18.45;73.35
78892;BME280;68368;51.728;5.248;2023-05-07T08:18:32;101669.36;;;18.55;72.90
78892;BME280;68368;51.728;5.248;2023-05-07T08:20:37;101674.74;;;18.68;72.84
78892;BME280;68368;51.728;5.248;2023-05-07T08:22:41;101672.68;;;18.89;72.65
78892;BME280;68368;51.728;5.248;2023-05-07T08:24:44;101671.39;;;19.12;72.08
78892;BME280;68368;51.728;5.248;2023-05-07T08:26:48;101669.85;;;19.32;71.08
78892;BME280;68368;51.728;5.248;2023-05-07T08:28:51;101668.55;;;19.43;70.60
78892;BME280;68368;51.728;5.248;2023-05-07T08:30:55;101670.94;;;19.58;70.65
78892;BME280;68368;51.728;5.248;2023-05-07T08:33:01;101672.60;;;19.73;69.88
78892;BME280;68368;51.728;5.248;2023-05-07T08:35:06;101677.64;;;19.89;69.63
78892;BME280;68368;51.728;5.248;2023-05-07T08:37:11;101678.86;;;20.01;68.65
78892;BME280;68368;51.728;5.248;2023-05-07T08:39:15;101677.25;;;20.09;67.86
78892;BME280;68368;51.728;5.248;2023-05-07T08:41:21;101679.32;;;20.18;67.83
78892;BME280;68368;51.728;5.248;2023-05-07T08:43:27;101676.73;;;20.29;67.31
78892;BME280;68368;51.728;5.248;2023-05-07T08:45:32;101674.04;;;20.38;66.75
78892;BME280;68368;51.728;5.248;2023-05-07T08:47:44;101680.16;;;20.48;66.87
78892;BME280;68368;51.728;5.248;2023-05-07T08:49:52;101675.48;;;20.67;66.97
78892;BME280;68368;51.728;5.248;2023-05-07T08:51:56;101672.43;;;20.90;66.43
78892;BME280;68368;51.728;5.248;2023-05-07T08:54:01;101680.26;;;21.15;65.89
78892;BME280;68368;51.728;5.248;2023-05-07T08:56:07;101679.86;;;21.38;65.17
78892;BME280;68368;51.728;5.248;2023-05-07T08:58:11;101678.80;;;21.60;64.78
78892;BME280;68368;51.728;5.248;2023-05-07T09:00:18;101684.45;;;21.83;64.02
78892;BME280;68368;51.728;5.248;2023-05-07T09:02:23;101685.96;;;21.98;62.23
78892;BME280;68368;51.728;5.248;2023-05-07T09:04:27;101687.34;;;22.08;61.74
78892;BME280;68368;51.728;5.248;2023-05-07T09:06:31;101690.42;;;22.16;61.60
78892;BME280;68368;51.728;5.248;2023-05-07T09:08:35;101686.22;;;22.26;61.17
78892;BME280;68368;51.728;5.248;2023-05-07T09:10:39;101686.33;;;22.39;60.85
78892;BME280;68368;51.728;5.248;2023-05-07T09:12:43;101687.29;;;22.61;61.10
78892;BME280;68368;51.728;5.248;2023-05-07T09:14:48;101685.69;;;22.84;59.94
78892;BME280;68368;51.728;5.248;2023-05-07T09:16:53;101675.41;;;22.94;58.92
78892;BME280;68368;51.728;5.248;2023-05-07T09:18:59;101677.36;;;23.03;59.31
78892;BME280;68368;51.728;5.248;2023-05-07T09:21:03;101679.70;;;23.14;58.51
78892;BME280;68368;51.728;5.248;2023-05-07T09:23:09;101681.17;;;23.17;58.42
78892;BME280;68368;51.728;5.248;2023-05-07T09:25:14;101685.54;;;23.24;59.02
78892;BME280;68368;51.728;5.248;2023-05-07T09:27:20;101685.39;;;23.35;59.12
78892;BME280;68368;51.728;5.248;2023-05-07T09:29:24;101687.01;;;23.49;59.08
78892;BME280;68368;51.728;5.248;2023-05-07T09:31:28;101685.23;;;23.60;58.45
78892;BME280;68368;51.728;5.248;2023-05-07T09:33:32;101686.41;;;23.65;57.84
78892;BME280;68368;51.728;5.248;2023-05-07T09:35:37;101685.15;;;23.61;57.64
78892;BME280;68368;51.728;5.248;2023-05-07T09:37:41;101681.95;;;23.53;57.57
78892;BME280;68368;51.728;5.248;2023-05-07T09:39:46;101684.65;;;23.46;57.63
78892;BME280;68368;51.728;5.248;2023-05-07T09:41:50;101689.11;;;23.37;57.25
78892;BME280;68368;51.728;5.248;2023-05-07T09:43:56;101685.15;;;23.25;57.46
78892;BME280;68368;51.728;5.248;2023-05-07T09:45:59;101684.12;;;23.20;57.87
78892;BME280;68368;51.728;5.248;2023-05-07T09:48:06;101689.38;;;23.24;57.76
78892;BME280;68368;51.728;5.248;2023-05-07T09:50:10;101689.80;;;23.26;57.77
78892;BME280;68368;51.728;5.248;2023-05-07T09:52:14;101692.98;;;23.39;57.75
78892;BME280;68368;51.728;5.248;2023-05-07T09:54:20;101687.59;;;23.48;57.19
78892;BME280;68368;51.728;5.248;2023-05-07T09:56:24;101688.82;;;23.60;57.14
78892;BME280;68368;51.728;5.248;2023-05-07T09:58:28;101689.00;;;23.67;57.00
78892;BME280;68368;51.728;5.248;2023-05-07T10:00:33;101692.16;;;23.81;56.18
78892;BME280;68368;51.728;5.248;2023-05-07T10:02:36;101692.90;;;23.97;55.88
78892;BME280;68368;51.728;5.248;2023-05-07T10:04:42;101689.75;;;24.16;54.93
78892;BME280;68368;51.728;5.248;2023-05-07T10:06:46;101692.14;;;24.29;54.66
78892;BME280;68368;51.728;5.248;2023-05-07T10:08:50;101692.44;;;24.47;54.52
78892;BME280;68368;51.728;5.248;2023-05-07T10:10:54;101695.20;;;24.59;54.25
78892;BME280;68368;51.728;5.248;2023-05-07T10:12:58;101695.77;;;24.69;54.17
78892;BME280;68368;51.728;5.248;2023-05-07T10:15:01;101698.23;;;24.80;53.97
78892;BME280;68368;51.728;5.248;2023-05-07T10:17:04;101691.36;;;24.86;53.57
78892;BME280;68368;51.728;5.248;2023-05-07T10:19:10;101690.80;;;24.96;53.62
78892;BME280;68368;51.728;5.248;2023-05-07T10:21:18;101694.21;;;25.06;52.65
78892;BME280;68368;51.728;5.248;2023-05-07T10:23:24;101694.77;;;25.13;52.37
78892;BME280;68368;51.728;5.248;2023-05-07T10:25:31;101697.20;;;25.15;51.93
78892;BME280;68368;51.728;5.248;2023-05-07T10:27:35;101692.56;;;25.13;51.91
78892;BME280;68368;51.728;5.248;2023-05-07T10:29:48;101697.34;;;25.09;52.05
78892;BME280;68368;51.728;5.248;2023-05-07T10:32:03;101691.71;;;24.99;52.39
78892;BME280;68368;51.728;5.248;2023-05-07T10:34:11;101693.88;;;24.90;52.23
78892;BME280;68368;51.728;5.248;2023-05-07T10:36:19;101695.97;;;24.82;52.21
78892;BME280;68368;51.728;5.248;2023-05-07T10:38:24;101691.30;;;24.71;52.29
78892;BME280;68368;51.728;5.248;2023-05-07T10:40:30;101696.66;;;24.73;52.52
78892;BME280;68368;51.728;5.248;2023-05-07T10:42:33;101698.64;;;24.76;52.71
78892;BME280;68368;51.728;5.248;2023-05-07T10:44:36;101700.51;;;24.79;52.03
78892;BME280;68368;51.728;5.248;2023-05-07T10:46:40;101702.88;;;24.81;52.60
78892;BME280;68368;51.728;5.248;2023-05-07T10:49:09;101696.27;;;24.90;52.07
78892;BME280;68368;51.728;5.248;2023-05-07T10:51:21;101696.85;;;24.95;52.23
78892;BME280;68368;51.728;5.248;2023-05-07T10:53:26;101698.91;;;25.10;52.80